createdAt,value
2022-12-13T00:02:01.685Z,45.75
2022-12-13T00:04:30.783Z,41.50
2022-12-13T00:07:00.081Z,42.30
2022-12-13T00:09:29.245Z,45.42
2022-12-13T00:11:58.207Z,41.53
2022-12-13T00:14:27.128Z,41.58
2022-12-13T00:16:56.268Z,45.08
2022-12-13T00:19:25.979Z,47.00
2022-12-13T00:21:54.974Z,49.70
2022-12-13T00:24:24.308Z,46.47
2022-12-13T00:26:57.504Z,47.72
2022-12-13T00:29:26.864Z,47.50
2022-12-13T00:32:00.462Z,46.80
2022-12-13T00:34:30.942Z,44.03
2022-12-13T00:37:00.410Z,42.22
2022-12-13T00:39:29.856Z,43.20
2022-12-13T00:41:59.079Z,42.80
2022-12-13T00:44:28.234Z,47.78
2022-12-13T00:46:57.585Z,42.72
2022-12-13T00:49:26.881Z,40.20
2022-12-13T00:51:55.802Z,43.17
2022-12-13T00:54:24.887Z,44.97
2022-12-13T00:56:53.859Z,50.38
2022-12-13T00:59:23.002Z,39.88
2022-12-13T01:01:52.259Z,49.80
2022-12-13T01:04:21.270Z,47.60
2022-12-13T01:06:52.375Z,47.17
2022-12-13T01:09:32.296Z,42.40
2022-12-13T01:12:07.699Z,41.67
2022-12-13T01:14:37.444Z,37.85
2022-12-13T01:17:06.858Z,47.60
2022-12-13T01:19:36.452Z,44.97
2022-12-13T01:22:08.433Z,53.15
2022-12-13T01:24:37.560Z,38.10
2022-12-13T01:27:06.812Z,45.92
2022-12-13T01:29:35.854Z,43.60
2022-12-13T01:32:05.203Z,43.50
2022-12-13T01:34:34.140Z,36.47
2022-12-13T01:37:03.586Z,40.28
2022-12-13T01:39:37.959Z,46.70
2022-12-13T01:42:07.708Z,40.75
2022-12-13T01:45:00.763Z,40.13
2022-12-13T01:47:40.370Z,33.20
2022-12-13T01:50:15.199Z,37.05
2022-12-13T01:52:45.776Z,36.03
2022-12-13T01:55:18.198Z,33.28
2022-12-13T01:57:49.774Z,31.75
2022-12-13T02:00:19.937Z,33.10
2022-12-13T02:02:50.174Z,38.65
2022-12-13T02:05:46.319Z,38.83
2022-12-13T02:08:17.431Z,40.85
2022-12-13T02:10:47.073Z,38.90
2022-12-13T02:13:16.699Z,36.22
2022-12-13T02:15:58.431Z,34.53
2022-12-13T02:19:00.431Z,36.38
2022-12-13T02:21:35.318Z,45.22
2022-12-13T02:24:27.553Z,45.15
2022-12-13T02:27:30.224Z,35.17
2022-12-13T02:30:27.931Z,35.95
2022-12-13T02:33:08.956Z,35.92
2022-12-13T02:35:57.640Z,36.95
2022-12-13T02:38:53.483Z,37.92
2022-12-13T02:41:48.091Z,35.97
2022-12-13T02:44:25.742Z,32.70
2022-12-13T02:47:12.754Z,33.90
2022-12-13T02:50:00.303Z,33.97
2022-12-13T02:52:32.575Z,33.72
2022-12-13T02:55:01.834Z,36.42
2022-12-13T02:57:37.937Z,36.38
2022-12-13T03:00:11.958Z,33.95
2022-12-13T03:06:06.736Z,38.05
2022-12-13T03:08:38.356Z,34.10
2022-12-13T03:11:07.290Z,32.35
2022-12-13T03:13:56.233Z,35.75
2022-12-13T03:16:56.492Z,39.33
2022-12-13T03:19:26.051Z,30.92
2022-12-13T03:21:54.992Z,37.25
2022-12-13T03:24:23.976Z,34.10
2022-12-13T03:26:53.775Z,33.97
2022-12-13T03:29:24.167Z,29.10
2022-12-13T03:31:55.205Z,31.75
2022-12-13T03:34:24.519Z,32.97
2022-12-13T03:36:54.716Z,30.75
2022-12-13T03:39:24.657Z,26.63
2022-12-13T03:41:54.003Z,30.98
2022-12-13T03:44:23.869Z,32.08
2022-12-13T03:47:00.977Z,39.55
2022-12-13T03:49:35.549Z,33.13
2022-12-13T03:52:05.147Z,28.10
2022-12-13T03:54:34.255Z,27.83
2022-12-13T03:57:03.581Z,25.95
2022-12-13T03:59:32.529Z,33.33
2022-12-13T04:02:01.487Z,28.42
2022-12-13T04:04:30.589Z,32.97
2022-12-13T04:06:59.547Z,27.60
2022-12-13T04:09:29.635Z,30.50
2022-12-13T04:12:17.028Z,31.10
2022-12-13T04:14:46.025Z,30.90
2022-12-13T04:17:14.897Z,28.73
2022-12-13T04:19:43.820Z,27.73
2022-12-13T04:22:12.707Z,28.65
2022-12-13T04:24:41.598Z,29.42
2022-12-13T04:27:10.760Z,28.02
2022-12-13T04:29:39.732Z,29.77
2022-12-13T04:32:26.771Z,29.55
2022-12-13T04:35:00.800Z,32.17
2022-12-13T04:37:31.352Z,31.05
2022-12-13T04:40:00.764Z,31.85
2022-12-13T04:42:30.354Z,25.40
2022-12-13T04:44:59.272Z,29.20
2022-12-13T04:47:28.737Z,28.77
2022-12-13T04:49:57.845Z,29.23
2022-12-13T04:52:26.809Z,29.10
2022-12-13T04:54:56.308Z,30.05
2022-12-13T04:57:25.635Z,29.52
2022-12-13T04:59:54.648Z,29.30
2022-12-13T05:02:24.411Z,25.10
2022-12-13T05:04:54.208Z,34.92
2022-12-13T05:07:23.997Z,29.05
2022-12-13T05:09:52.887Z,25.33
2022-12-13T05:12:22.371Z,26.63
2022-12-13T05:14:53.693Z,29.15
2022-12-13T05:17:22.888Z,27.08
2022-12-13T05:19:53.500Z,26.50
2022-12-13T05:22:22.416Z,26.98
2022-12-13T05:24:51.628Z,28.63
2022-12-13T05:27:25.325Z,26.70
2022-12-13T05:30:02.922Z,31.63
2022-12-13T05:32:43.231Z,24.10
2022-12-13T05:35:22.350Z,24.27
2022-12-13T05:37:53.394Z,25.48
2022-12-13T05:40:24.789Z,28.27
2022-12-13T05:43:01.555Z,27.80
2022-12-13T05:45:34.830Z,25.20
2022-12-13T05:48:03.840Z,29.52
2022-12-13T05:50:33.088Z,26.77
2022-12-13T05:53:01.998Z,32.35
2022-12-13T05:55:30.958Z,33.53
2022-12-13T05:58:02.440Z,27.50
2022-12-13T06:00:32.674Z,25.88
2022-12-13T06:03:02.175Z,25.42
2022-12-13T06:05:32.459Z,26.38
2022-12-13T06:08:01.642Z,24.30
2022-12-13T06:10:34.891Z,26.05
2022-12-13T06:16:01.260Z,27.85
2022-12-13T06:18:33.364Z,27.25
2022-12-13T06:21:05.517Z,23.40
2022-12-13T06:23:36.375Z,28.85
2022-12-13T06:26:07.311Z,27.15
2022-12-13T06:28:36.855Z,22.83
2022-12-13T06:31:06.747Z,25.73
2022-12-13T06:33:37.652Z,24.70
2022-12-13T06:36:07.879Z,25.77
2022-12-13T06:38:43.612Z,28.52
2022-12-13T06:41:18.279Z,24.38
2022-12-13T06:43:48.811Z,25.38
2022-12-13T06:46:17.951Z,24.63
2022-12-13T06:48:48.004Z,25.65
2022-12-13T06:51:22.399Z,24.50
2022-12-13T06:53:52.164Z,25.80
2022-12-13T06:56:21.455Z,25.05
2022-12-13T06:58:50.738Z,28.23
2022-12-13T07:01:23.940Z,27.80
2022-12-13T07:03:57.455Z,24.98
2022-12-13T07:06:27.309Z,24.77
2022-12-13T07:08:59.184Z,27.05
2022-12-13T07:11:34.153Z,21.17
2022-12-13T07:14:03.103Z,24.00
2022-12-13T07:16:38.011Z,27.40
2022-12-13T07:19:22.429Z,24.67
2022-12-13T07:21:53.868Z,24.17
2022-12-13T07:24:30.613Z,23.83
2022-12-13T07:26:59.529Z,25.35
2022-12-13T07:29:28.614Z,25.55
2022-12-13T07:32:01.453Z,24.25
2022-12-13T07:34:31.813Z,25.08
2022-12-13T07:37:01.050Z,20.10
2022-12-13T07:39:30.258Z,28.23
2022-12-13T07:41:59.357Z,26.48
2022-12-13T07:44:28.510Z,26.98
2022-12-13T07:46:59.067Z,27.73
2022-12-13T07:49:27.991Z,21.05
2022-12-13T07:51:58.031Z,23.88
2022-12-13T07:54:27.348Z,25.52
2022-12-13T07:57:01.154Z,20.75
2022-12-13T07:59:33.203Z,25.25
2022-12-13T08:02:02.292Z,26.95
2022-12-13T08:04:37.467Z,22.10
2022-12-13T08:07:10.907Z,22.75
2022-12-13T08:09:40.156Z,23.85
2022-12-13T08:12:09.558Z,25.65
2022-12-13T08:14:38.626Z,22.15
2022-12-13T08:17:07.557Z,22.88
2022-12-13T08:19:36.425Z,31.23
2022-12-13T08:22:05.377Z,23.13
2022-12-13T08:24:43.233Z,19.73
2022-12-13T08:27:12.143Z,19.95
2022-12-13T08:29:41.315Z,22.52
2022-12-13T08:32:12.884Z,20.75
2022-12-13T08:34:44.780Z,22.23
2022-12-13T08:37:14.415Z,23.38
2022-12-13T08:39:43.510Z,22.80
2022-12-13T08:42:19.893Z,28.17
2022-12-13T08:44:51.539Z,22.50
2022-12-13T08:47:24.495Z,23.52
2022-12-13T08:50:04.328Z,20.75
2022-12-13T08:52:39.390Z,22.35
2022-12-13T08:55:12.331Z,19.42
2022-12-13T08:57:43.082Z,25.05
2022-12-13T09:00:15.324Z,20.42
2022-12-13T09:02:44.920Z,18.45
2022-12-13T09:05:32.427Z,18.98
2022-12-13T09:08:25.174Z,22.08
2022-12-13T09:11:11.462Z,21.60
2022-12-13T09:13:51.267Z,20.42
2022-12-13T09:16:26.028Z,23.80
2022-12-13T09:18:56.162Z,25.88
2022-12-13T09:21:31.626Z,24.70
2022-12-13T09:24:02.153Z,20.65
2022-12-13T09:26:38.081Z,23.52
2022-12-13T09:29:11.037Z,24.90
2022-12-13T09:31:41.623Z,28.07
2022-12-13T09:34:12.298Z,27.33
2022-12-13T09:36:41.747Z,27.92
2022-12-13T09:39:13.242Z,25.88
2022-12-13T09:41:52.197Z,22.90
2022-12-13T09:44:43.732Z,25.58
2022-12-13T09:47:35.128Z,24.75
2022-12-13T09:50:15.339Z,28.02
2022-12-13T09:52:45.853Z,22.45
2022-12-13T09:55:44.348Z,30.50
2022-12-13T09:58:36.031Z,27.52
2022-12-13T10:01:07.532Z,29.30
2022-12-13T10:03:36.489Z,27.15
2022-12-13T10:06:23.347Z,27.67
2022-12-13T10:08:59.043Z,28.73
2022-12-13T10:11:32.184Z,30.38
2022-12-13T10:14:37.618Z,27.60
2022-12-13T10:17:10.448Z,23.92
2022-12-13T10:19:42.819Z,23.10
2022-12-13T10:22:17.443Z,28.33
2022-12-13T10:24:57.952Z,20.90
2022-12-13T10:27:34.907Z,24.65
2022-12-13T10:30:18.159Z,23.55
2022-12-13T10:32:52.290Z,23.55
2022-12-13T10:35:27.018Z,25.95
2022-12-13T10:37:57.589Z,30.35
2022-12-13T10:40:35.433Z,25.73
2022-12-13T10:43:15.305Z,26.40
2022-12-13T10:46:00.416Z,26.17
2022-12-13T10:48:38.878Z,24.77
2022-12-13T10:51:21.155Z,25.40
2022-12-13T10:53:59.677Z,26.90
2022-12-13T10:57:01.391Z,22.88
2022-12-13T10:59:36.835Z,24.60
2022-12-13T11:02:37.672Z,29.17
2022-12-13T11:05:28.326Z,27.15
2022-12-13T11:08:00.727Z,28.30
2022-12-13T11:10:31.532Z,28.85
2022-12-13T11:13:06.341Z,29.52
2022-12-13T11:15:39.730Z,27.70
2022-12-13T11:18:20.202Z,29.98
2022-12-13T11:21:01.806Z,29.45
2022-12-13T11:23:39.652Z,25.08
2022-12-13T11:26:12.509Z,27.60
2022-12-13T11:28:56.703Z,30.85
2022-12-13T11:31:55.015Z,30.55
2022-12-13T11:34:42.128Z,31.52
2022-12-13T11:37:30.105Z,30.75
2022-12-13T11:40:09.157Z,30.42
2022-12-13T11:43:00.597Z,29.27
2022-12-13T11:45:41.522Z,28.98
2022-12-13T11:48:47.757Z,33.88
2022-12-13T11:51:25.877Z,29.67
2022-12-13T11:54:09.132Z,34.40
2022-12-13T11:56:43.497Z,29.98
2022-12-13T11:59:40.114Z,27.75
2022-12-13T12:02:30.651Z,33.42
2022-12-13T12:05:02.573Z,35.70
2022-12-13T12:08:31.378Z,30.48
2022-12-13T12:10:50.064Z,35.25
2022-12-13T12:13:30.054Z,37.17
2022-12-13T12:16:16.279Z,31.92
2022-12-13T12:18:45.489Z,34.40
2022-12-13T12:25:00.353Z,35.25
2022-12-13T12:27:32.155Z,31.48
2022-12-13T12:30:06.333Z,35.90
2022-12-13T12:32:55.760Z,36.80
2022-12-13T12:35:58.269Z,38.58
2022-12-13T12:38:42.813Z,40.15
2022-12-13T12:44:06.243Z,44.38
2022-12-13T12:47:17.718Z,43.88
2022-12-13T12:49:49.433Z,43.72
2022-12-13T12:52:54.283Z,44.03
2022-12-13T12:55:47.632Z,45.55
2022-12-13T12:59:00.786Z,41.72
2022-12-13T13:01:47.573Z,44.40
2022-12-13T13:04:22.189Z,40.90
2022-12-13T13:07:22.536Z,38.97
2022-12-13T13:09:55.414Z,39.28
2022-12-13T13:12:30.076Z,45.17
2022-12-13T13:15:00.170Z,41.05
2022-12-13T13:17:29.488Z,44.75
2022-12-13T13:20:19.661Z,46.85
2022-12-13T13:23:03.952Z,48.50
2022-12-13T13:25:54.346Z,46.63
2022-12-13T13:28:27.339Z,44.15
2022-12-13T13:31:09.921Z,51.78
2022-12-13T13:33:48.672Z,56.08
2022-12-13T13:36:45.987Z,50.65
2022-12-13T13:39:20.545Z,51.50
2022-12-13T13:41:57.833Z,47.17
2022-12-13T13:44:48.077Z,47.00
2022-12-13T13:47:20.026Z,51.88
2022-12-13T13:50:24.038Z,47.83
2022-12-13T13:53:27.366Z,58.63
2022-12-13T13:56:21.069Z,53.88
2022-12-13T13:59:14.452Z,57.60
2022-12-13T14:02:20.258Z,47.05
2022-12-13T14:05:04.991Z,59.85
2022-12-13T14:07:52.017Z,55.42
2022-12-13T14:10:36.324Z,54.15
2022-12-13T14:13:23.956Z,60.60
2022-12-13T14:16:31.495Z,56.08
2022-12-13T14:19:18.764Z,61.13
2022-12-13T14:22:01.491Z,62.35
2022-12-13T14:24:56.305Z,56.75
2022-12-13T14:30:28.141Z,56.20
2022-12-13T14:32:59.510Z,61.40
2022-12-13T14:35:31.346Z,58.88
2022-12-13T14:38:02.233Z,58.83
2022-12-13T14:40:35.901Z,64.13
2022-12-13T14:43:05.453Z,60.75
2022-12-13T14:45:41.589Z,54.08
2022-12-13T14:48:28.731Z,56.92
2022-12-13T14:50:58.968Z,55.42
2022-12-13T14:53:38.487Z,58.25
2022-12-13T14:56:27.793Z,61.22
2022-12-13T14:59:00.629Z,62.05
2022-12-13T15:01:38.370Z,55.28
2022-12-13T15:04:22.850Z,58.58
2022-12-13T15:09:28.965Z,54.40
2022-12-13T15:12:14.916Z,52.20
2022-12-13T15:15:09.423Z,54.90
2022-12-13T15:17:41.143Z,55.20
2022-12-13T15:20:33.783Z,60.25
2022-12-13T15:23:21.495Z,56.38
2022-12-13T15:26:29.002Z,61.58
2022-12-13T15:29:09.977Z,54.20
2022-12-13T15:31:41.382Z,53.17
2022-12-13T15:34:31.668Z,49.30
2022-12-13T15:37:29.593Z,51.83
2022-12-13T15:40:08.115Z,49.55
2022-12-13T15:42:45.733Z,53.60
2022-12-13T15:45:37.126Z,49.75
2022-12-13T15:48:07.094Z,54.80
2022-12-13T15:50:45.481Z,54.63
2022-12-13T15:53:28.921Z,50.85
2022-12-13T15:55:58.544Z,52.20
2022-12-13T15:58:32.912Z,49.40
2022-12-13T16:01:08.031Z,52.33
2022-12-13T16:03:45.617Z,45.63
2022-12-13T16:06:26.895Z,50.25
2022-12-13T16:09:00.216Z,47.28
2022-12-13T16:11:36.344Z,44.10
2022-12-13T16:14:33.206Z,47.35
2022-12-13T16:17:23.239Z,44.40
2022-12-13T16:19:53.483Z,48.60
2022-12-13T16:22:24.883Z,37.50
2022-12-13T16:24:54.309Z,44.88
2022-12-13T16:27:23.265Z,39.97
2022-12-13T16:29:52.309Z,47.85
2022-12-13T16:32:21.790Z,46.92
2022-12-13T16:34:50.831Z,43.38
2022-12-13T16:37:27.315Z,40.20
2022-12-13T16:39:57.037Z,40.97
2022-12-13T16:42:27.215Z,44.65
2022-12-13T16:45:39.554Z,39.83
2022-12-13T16:47:51.060Z,42.60
2022-12-13T16:50:22.180Z,41.42
2022-12-13T16:52:51.472Z,44.72
2022-12-13T16:55:20.446Z,41.58
2022-12-13T16:58:03.931Z,37.72
2022-12-13T17:00:33.029Z,40.92
2022-12-13T17:03:02.680Z,40.38
2022-12-13T17:05:32.299Z,39.13
2022-12-13T17:08:01.502Z,50.35
2022-12-13T17:10:30.864Z,39.28
2022-12-13T17:12:59.859Z,41.60
2022-12-13T17:15:29.315Z,38.17
2022-12-13T17:17:58.513Z,37.22
2022-12-13T17:20:28.252Z,41.03
2022-12-13T17:22:57.500Z,36.05
2022-12-13T17:25:26.545Z,46.08
2022-12-13T17:27:55.514Z,37.17
2022-12-13T17:30:25.259Z,49.58
2022-12-13T17:32:54.175Z,40.80
2022-12-13T17:35:23.142Z,41.63
2022-12-13T17:37:52.093Z,37.92
2022-12-13T17:40:21.606Z,35.97
2022-12-13T17:42:54.418Z,39.85
2022-12-13T17:45:24.186Z,39.60
2022-12-13T17:47:53.096Z,39.33
2022-12-13T17:50:22.423Z,39.47
2022-12-13T17:52:51.389Z,37.55
2022-12-13T17:55:20.312Z,38.03
2022-12-13T17:57:49.339Z,39.00
2022-12-13T18:00:18.606Z,33.45
2022-12-13T18:02:55.667Z,42.78
2022-12-13T18:05:28.708Z,41.40
2022-12-13T18:07:57.755Z,42.25
2022-12-13T18:10:29.980Z,37.33
2022-12-13T18:13:00.138Z,36.28
2022-12-13T18:15:29.449Z,39.30
2022-12-13T18:18:11.174Z,39.88
2022-12-13T18:20:41.112Z,38.40
2022-12-13T18:23:10.205Z,36.58
2022-12-13T18:25:39.810Z,42.95
2022-12-13T18:28:10.513Z,38.22
2022-12-13T18:30:40.043Z,38.35
2022-12-13T18:33:09.118Z,42.97
2022-12-13T18:35:38.086Z,37.03
2022-12-13T18:38:07.045Z,46.97
2022-12-13T18:40:36.043Z,43.72
2022-12-13T18:43:05.617Z,35.90
2022-12-13T18:45:35.666Z,34.90
2022-12-13T18:48:04.641Z,42.05
2022-12-13T18:50:34.770Z,37.75
2022-12-13T18:53:03.956Z,39.15
2022-12-13T18:55:32.918Z,37.30
2022-12-13T18:58:02.119Z,42.83
2022-12-13T19:00:31.125Z,43.75
2022-12-13T19:03:00.389Z,40.63
2022-12-13T19:05:29.820Z,40.90
2022-12-13T19:07:58.854Z,42.80
2022-12-13T19:10:27.868Z,39.75
2022-12-13T19:12:56.839Z,41.35
2022-12-13T19:15:26.027Z,47.40
2022-12-13T19:17:54.999Z,34.42
2022-12-13T19:20:24.276Z,41.10
2022-12-13T19:22:53.283Z,42.30
2022-12-13T19:25:22.198Z,44.47
2022-12-13T19:27:51.176Z,45.15
2022-12-13T19:30:24.056Z,39.05
2022-12-13T19:32:53.656Z,40.10
2022-12-13T19:35:22.637Z,43.33
2022-12-13T19:37:51.646Z,39.03
2022-12-13T19:40:20.859Z,42.17
2022-12-13T19:42:49.803Z,38.63
2022-12-13T19:45:18.893Z,39.53
2022-12-13T19:47:48.801Z,44.85
2022-12-13T19:50:18.146Z,47.22
2022-12-13T19:52:47.472Z,41.42
2022-12-13T19:55:16.505Z,48.42
2022-12-13T19:57:45.464Z,44.95
2022-12-13T20:00:15.357Z,44.80
2022-12-13T20:02:44.486Z,40.90
2022-12-13T20:05:13.660Z,44.55
2022-12-13T20:07:43.112Z,43.22
2022-12-13T20:10:13.262Z,41.13
2022-12-13T20:12:42.203Z,44.65
2022-12-13T20:15:11.476Z,45.50
2022-12-13T20:17:40.461Z,38.85
2022-12-13T20:20:10.089Z,45.25
2022-12-13T20:22:39.491Z,42.90
2022-12-13T20:25:08.908Z,46.30
2022-12-13T20:27:38.009Z,47.25
2022-12-13T20:30:07.719Z,43.45
2022-12-13T20:32:36.814Z,45.03
2022-12-13T20:35:06.098Z,43.35
2022-12-13T20:37:35.540Z,44.63
2022-12-13T20:40:04.735Z,43.28
2022-12-13T20:42:35.166Z,45.65
2022-12-13T20:45:05.135Z,47.00
2022-12-13T20:47:37.825Z,45.83
2022-12-13T20:50:07.631Z,43.78
2022-12-13T20:52:36.860Z,45.90
2022-12-13T20:55:07.395Z,47.35
2022-12-13T20:57:36.609Z,50.72
2022-12-13T21:00:09.459Z,42.58
2022-12-13T21:02:40.107Z,37.55
2022-12-13T21:05:09.472Z,48.80
2022-12-13T21:07:56.824Z,42.25
2022-12-13T21:10:26.174Z,40.20
2022-12-13T21:12:55.159Z,53.40
2022-12-13T21:15:24.120Z,45.33
2022-12-13T21:17:53.356Z,43.75
2022-12-13T21:20:22.451Z,46.70
2022-12-13T21:22:51.604Z,47.42
2022-12-13T21:25:20.554Z,41.25
2022-12-13T21:27:49.518Z,44.63
2022-12-13T21:30:18.564Z,45.65
2022-12-13T21:32:51.456Z,52.17
2022-12-13T21:35:21.925Z,47.78
2022-12-13T21:37:51.121Z,50.90
2022-12-13T21:40:20.134Z,47.83
2022-12-13T21:42:49.326Z,45.33
2022-12-13T21:45:18.322Z,44.70
2022-12-13T21:47:47.465Z,45.90
2022-12-13T21:50:16.396Z,48.28
2022-12-13T21:52:49.539Z,44.65
2022-12-13T21:58:28.943Z,50.58
2022-12-13T22:00:58.411Z,42.83
2022-12-13T22:03:27.476Z,51.55
2022-12-13T22:05:56.381Z,61.95
2022-12-13T22:08:26.171Z,55.53
2022-12-13T22:11:19.338Z,57.85
2022-12-13T22:13:50.624Z,46.67
2022-12-13T22:16:19.576Z,53.05
2022-12-13T22:18:48.566Z,55.75
2022-12-13T22:21:17.544Z,53.03
2022-12-13T22:23:46.496Z,52.90
2022-12-13T22:26:15.463Z,52.58
2022-12-13T22:28:44.505Z,55.22
2022-12-13T22:31:13.515Z,53.75
2022-12-13T22:33:42.441Z,52.83
2022-12-13T22:36:12.450Z,54.28
2022-12-13T22:38:41.416Z,54.83
2022-12-13T22:41:15.328Z,51.10
2022-12-13T22:43:45.084Z,63.55
2022-12-13T22:46:20.504Z,56.05
2022-12-13T22:48:49.966Z,65.75
2022-12-13T22:51:20.327Z,68.70
2022-12-13T22:53:50.016Z,66.75
2022-12-13T22:56:22.574Z,69.05
2022-12-13T22:58:57.154Z,61.40
2022-12-13T23:01:28.541Z,70.97
2022-12-13T23:03:57.818Z,71.50
2022-12-13T23:06:29.367Z,69.07
2022-12-13T23:09:03.005Z,67.97
2022-12-13T23:11:50.600Z,70.13
2022-12-13T23:14:26.058Z,65.22
2022-12-13T23:16:55.197Z,68.97
2022-12-13T23:22:13.286Z,71.57
2022-12-13T23:24:42.249Z,69.25
2022-12-13T23:27:11.272Z,69.28
2022-12-13T23:29:40.372Z,67.10
2022-12-13T23:32:09.399Z,68.53
2022-12-13T23:34:38.457Z,69.07
2022-12-13T23:37:07.466Z,63.97
2022-12-13T23:39:36.402Z,70.47
2022-12-13T23:42:05.398Z,77.95
2022-12-13T23:44:34.543Z,71.47
2022-12-13T23:47:03.627Z,83.07
2022-12-13T23:49:32.715Z,75.97
2022-12-13T23:52:01.645Z,69.40
2022-12-13T23:54:30.632Z,71.95
2022-12-13T23:56:59.758Z,82.85
2022-12-13T23:59:30.030Z,98.93
